sensor_id;sensor_type;location;lat;lon;timestamp;pressure;altitude;pressure_sealevel;temperature;humidity
74181;BME280;62544;50.826;14.354;2022-08-30T00:02:32;99648.39;;;8.22;93.50
74181;BME280;62544;50.826;14.354;2022-08-30T00:06:33;99649.54;;;8.22;93.12
74181;BME280;62544;50.826;14.354;2022-08-30T00:10:36;99650.22;;;8.23;93.10
74181;BME280;62544;50.826;14.354;2022-08-30T00:14:38;99650.09;;;8.25;93.17
74181;BME280;62544;50.826;14.354;2022-08-30T00:18:39;99649.49;;;8.29;93.55
74181;BME280;62544;50.826;14.354;2022-08-30T00:22:41;99648.54;;;8.34;93.28
74181;BME280;62544;50.826;14.354;2022-08-30T00:26:44;99648.44;;;8.40;93.34
74181;BME280;62544;50.826;14.354;2022-08-30T00:30:46;99647.72;;;8.45;93.59
74181;BME280;62544;50.826;14.354;2022-08-30T00:34:48;99645.61;;;8.52;93.50
74181;BME280;62544;50.826;14.354;2022-08-30T00:38:49;99644.39;;;8.59;93.50
74181;BME280;62544;50.826;14.354;2022-08-30T00:42:51;99643.91;;;8.66;93.26
74181;BME280;62544;50.826;14.354;2022-08-30T00:46:53;99642.36;;;8.73;93.36
74181;BME280;62544;50.826;14.354;2022-08-30T00:51:05;99641.28;;;8.80;93.41
74181;BME280;62544;50.826;14.354;2022-08-30T00:54:57;99641.13;;;8.87;93.53
74181;BME280;62544;50.826;14.354;2022-08-30T00:59:00;99639.90;;;8.94;93.52
74181;BME280;62544;50.826;14.354;2022-08-30T01:03:02;99638.59;;;9.00;93.33
74181;BME280;62544;50.826;14.354;2022-08-30T01:07:03;99638.31;;;9.05;93.54
74181;BME280;62544;50.826;14.354;2022-08-30T01:11:06;99638.75;;;9.09;93.66
74181;BME280;62544;50.826;14.354;2022-08-30T01:15:08;99640.13;;;9.11;94.03
74181;BME280;62544;50.826;14.354;2022-08-30T01:19:15;99641.92;;;9.13;94.08
74181;BME280;62544;50.826;14.354;2022-08-30T01:23:12;99642.33;;;9.15;94.16
74181;BME280;62544;50.826;14.354;2022-08-30T01:27:14;99640.97;;;9.17;94.14
74181;BME280;62544;50.826;14.354;2022-08-30T01:31:15;99639.69;;;9.20;93.96
74181;BME280;62544;50.826;14.354;2022-08-30T01:35:18;99638.44;;;9.22;93.71
74181;BME280;62544;50.826;14.354;2022-08-30T01:39:20;99637.23;;;9.25;93.73
74181;BME280;62544;50.826;14.354;2022-08-30T01:43:22;99636.36;;;9.28;93.61
74181;BME280;62544;50.826;14.354;2022-08-30T01:47:24;99637.42;;;9.30;93.64
74181;BME280;62544;50.826;14.354;2022-08-30T01:51:26;99639.98;;;9.32;93.54
74181;BME280;62544;50.826;14.354;2022-08-30T01:55:28;99641.71;;;9.33;93.60
74181;BME280;62544;50.826;14.354;2022-08-30T01:59:30;99641.61;;;9.33;93.71
74181;BME280;62544;50.826;14.354;2022-08-30T02:03:32;99639.28;;;9.34;93.84
74181;BME280;62544;50.826;14.354;2022-08-30T02:07:34;99637.95;;;9.35;93.91
74181;BME280;62544;50.826;14.354;2022-08-30T02:11:36;99637.34;;;9.38;93.73
74181;BME280;62544;50.826;14.354;2022-08-30T02:15:38;99637.98;;;9.40;93.75
74181;BME280;62544;50.826;14.354;2022-08-30T02:19:40;99637.95;;;9.41;93.72
74181;BME280;62544;50.826;14.354;2022-08-30T02:23:42;99637.69;;;9.42;93.71
74181;BME280;62544;50.826;14.354;2022-08-30T02:27:44;99636.92;;;9.45;93.66
74181;BME280;62544;50.826;14.354;2022-08-30T02:31:46;99636.64;;;9.47;93.52
74181;BME280;62544;50.826;14.354;2022-08-30T02:35:48;99638.26;;;9.50;93.37
74181;BME280;62544;50.826;14.354;2022-08-30T02:39:50;99640.72;;;9.52;93.37
74181;BME280;62544;50.826;14.354;2022-08-30T02:43:52;99643.10;;;9.54;93.40
74181;BME280;62544;50.826;14.354;2022-08-30T02:47:54;99645.39;;;9.57;93.35
74181;BME280;62544;50.826;14.354;2022-08-30T02:51:56;99645.84;;;9.59;93.28
74181;BME280;62544;50.826;14.354;2022-08-30T02:55:58;99645.75;;;9.60;93.18
74181;BME280;62544;50.826;14.354;2022-08-30T02:59:59;99644.73;;;9.61;93.18
74181;BME280;62544;50.826;14.354;2022-08-30T03:04:02;99643.61;;;9.60;93.24
74181;BME280;62544;50.826;14.354;2022-08-30T03:08:04;99643.27;;;9.59;93.30
74181;BME280;62544;50.826;14.354;2022-08-30T03:12:06;99644.12;;;9.58;93.14
74181;BME280;62544;50.826;14.354;2022-08-30T03:16:08;99644.98;;;9.55;92.98
74181;BME280;62544;50.826;14.354;2022-08-30T03:20:10;99646.84;;;9.53;93.03
74181;BME280;62544;50.826;14.354;2022-08-30T03:24:11;99647.38;;;9.50;92.97
74181;BME280;62544;50.826;14.354;2022-08-30T03:28:13;99647.25;;;9.47;92.93
74181;BME280;62544;50.826;14.354;2022-08-30T03:32:15;99648.92;;;9.44;92.86
74181;BME280;62544;50.826;14.354;2022-08-30T03:36:18;99650.98;;;9.40;92.93
74181;BME280;62544;50.826;14.354;2022-08-30T03:40:20;99653.57;;;9.37;92.94
74181;BME280;62544;50.826;14.354;2022-08-30T03:44:22;99656.62;;;9.33;93.21
74181;BME280;62544;50.826;14.354;2022-08-30T03:48:23;99659.55;;;9.31;93.23
74181;BME280;62544;50.826;14.354;2022-08-30T03:52:25;99660.31;;;9.30;93.06
74181;BME280;62544;50.826;14.354;2022-08-30T03:56:27;99660.57;;;9.30;93.00
74181;BME280;62544;50.826;14.354;2022-08-30T04:00:29;99660.53;;;9.31;92.81
74181;BME280;62544;50.826;14.354;2022-08-30T04:04:32;99660.37;;;9.31;92.90
74181;BME280;62544;50.826;14.354;2022-08-30T04:08:33;99659.22;;;9.31;93.03
74181;BME280;62544;50.826;14.354;2022-08-30T04:12:35;99657.32;;;9.30;93.00
74181;BME280;62544;50.826;14.354;2022-08-30T04:16:38;99655.08;;;9.30;93.25
74181;BME280;62544;50.826;14.354;2022-08-30T04:20:40;99652.91;;;9.31;93.06
74181;BME280;62544;50.826;14.354;2022-08-30T04:24:41;99652.15;;;9.33;93.12
74181;BME280;62544;50.826;14.354;2022-08-30T04:28:43;99651.86;;;9.36;93.06
74181;BME280;62544;50.826;14.354;2022-08-30T04:32:46;99652.67;;;9.38;92.92
74181;BME280;62544;50.826;14.354;2022-08-30T04:36:48;99653.75;;;9.38;93.31
74181;BME280;62544;50.826;14.354;2022-08-30T04:40:49;99655.97;;;9.40;93.35
74181;BME280;62544;50.826;14.354;2022-08-30T04:44:51;99658.79;;;9.40;93.01
74181;BME280;62544;50.826;14.354;2022-08-30T04:48:53;99661.63;;;9.38;93.34
74181;BME280;62544;50.826;14.354;2022-08-30T04:52:56;99664.54;;;9.36;93.27
74181;BME280;62544;50.826;14.354;2022-08-30T04:56:57;99667.22;;;9.35;93.34
74181;BME280;62544;50.826;14.354;2022-08-30T05:00:59;99670.20;;;9.35;93.35
74181;BME280;62544;50.826;14.354;2022-08-30T05:05:02;99673.22;;;9.38;93.22
74181;BME280;62544;50.826;14.354;2022-08-30T05:09:03;99675.90;;;9.43;92.70
74181;BME280;62544;50.826;14.354;2022-08-30T05:13:06;99678.66;;;9.48;92.57
74181;BME280;62544;50.826;14.354;2022-08-30T05:17:07;99679.92;;;9.54;92.41
74181;BME280;62544;50.826;14.354;2022-08-30T05:21:10;99681.39;;;9.63;91.80
74181;BME280;62544;50.826;14.354;2022-08-30T05:25:11;99682.67;;;9.71;91.76
74181;BME280;62544;50.826;14.354;2022-08-30T05:29:13;99684.23;;;9.80;91.24
74181;BME280;62544;50.826;14.354;2022-08-30T05:33:15;99686.84;;;9.89;91.52
74181;BME280;62544;50.826;14.354;2022-08-30T05:37:17;99690.03;;;9.98;89.84
74181;BME280;62544;50.826;14.354;2022-08-30T05:41:20;99691.64;;;10.08;90.20
74181;BME280;62544;50.826;14.354;2022-08-30T05:45:21;99692.50;;;10.17;89.44
74181;BME280;62544;50.826;14.354;2022-08-30T05:49:24;99692.46;;;10.27;89.61
74181;BME280;62544;50.826;14.354;2022-08-30T05:53:25;99694.20;;;10.38;89.76
74181;BME280;62544;50.826;14.354;2022-08-30T05:57:27;99694.64;;;10.53;89.23
74181;BME280;62544;50.826;14.354;2022-08-30T06:01:31;99694.31;;;10.68;87.22
74181;BME280;62544;50.826;14.354;2022-08-30T06:05:31;99694.45;;;10.81;88.32
74181;BME280;62544;50.826;14.354;2022-08-30T06:09:33;99694.81;;;10.96;87.21
74181;BME280;62544;50.826;14.354;2022-08-30T06:13:35;99693.77;;;11.13;87.48
74181;BME280;62544;50.826;14.354;2022-08-30T06:17:38;99694.42;;;11.36;85.71
74181;BME280;62544;50.826;14.354;2022-08-30T06:21:40;99694.93;;;11.68;83.11
74181;BME280;62544;50.826;14.354;2022-08-30T06:25:42;99696.17;;;12.08;79.90
74181;BME280;62544;50.826;14.354;2022-08-30T06:29:43;99695.12;;;12.54;77.51
74181;BME280;62544;50.826;14.354;2022-08-30T06:33:45;99694.79;;;13.03;75.98
74181;BME280;62544;50.826;14.354;2022-08-30T06:37:47;99693.99;;;13.60;72.16
74181;BME280;62544;50.826;14.354;2022-08-30T06:41:49;99691.75;;;14.24;69.62
74181;BME280;62544;50.826;14.354;2022-08-30T06:45:51;99689.95;;;14.85;68.17
74181;BME280;62544;50.826;14.354;2022-08-30T06:49:53;99688.99;;;15.46;66.96
74181;BME280;62544;50.826;14.354;2022-08-30T06:53:56;99686.63;;;16.03;64.63
74181;BME280;62544;50.826;14.354;2022-08-30T06:57:58;99682.98;;;16.55;63.60
74181;BME280;62544;50.826;14.354;2022-08-30T07:01:59;99679.71;;;17.03;62.22
74181;BME280;62544;50.826;14.354;2022-08-30T07:06:01;99676.65;;;17.44;61.83
74181;BME280;62544;50.826;14.354;2022-08-30T07:10:04;99673.24;;;17.81;62.06
74181;BME280;62544;50.826;14.354;2022-08-30T07:14:05;99669.92;;;18.12;61.73
74181;BME280;62544;50.826;14.354;2022-08-30T07:18:08;99667.72;;;18.41;61.67
74181;BME280;62544;50.826;14.354;2022-08-30T07:22:09;99666.27;;;18.68;61.42
74181;BME280;62544;50.826;14.354;2022-08-30T07:26:12;99665.70;;;18.90;62.02
74181;BME280;62544;50.826;14.354;2022-08-30T07:30:13;99665.00;;;19.09;62.37
74181;BME280;62544;50.826;14.354;2022-08-30T07:34:15;99664.17;;;19.25;62.74
74181;BME280;62544;50.826;14.354;2022-08-30T07:38:17;99664.01;;;19.42;62.66
74181;BME280;62544;50.826;14.354;2022-08-30T07:42:19;99662.58;;;19.61;62.32
74181;BME280;62544;50.826;14.354;2022-08-30T07:46:22;99661.86;;;19.81;62.41
74181;BME280;62544;50.826;14.354;2022-08-30T07:50:23;99662.92;;;20.07;60.81
74181;BME280;62544;50.826;14.354;2022-08-30T07:54:25;99665.52;;;20.33;60.96
74181;BME280;62544;50.826;14.354;2022-08-30T07:58:27;99667.21;;;20.65;59.48
74181;BME280;62544;50.826;14.354;2022-08-30T08:02:29;99668.31;;;20.96;60.36
74181;BME280;62544;50.826;14.354;2022-08-30T08:06:31;99668.24;;;21.27;59.59
74181;BME280;62544;50.826;14.354;2022-08-30T08:10:35;99666.28;;;21.63;58.55
74181;BME280;62544;50.826;14.354;2022-08-30T08:14:35;99664.90;;;21.97;56.57
74181;BME280;62544;50.826;14.354;2022-08-30T08:18:37;99663.28;;;22.30;57.29
74181;BME280;62544;50.826;14.354;2022-08-30T08:22:39;99662.45;;;22.66;55.60
74181;BME280;62544;50.826;14.354;2022-08-30T08:26:41;99661.87;;;22.88;52.90
74181;BME280;62544;50.826;14.354;2022-08-30T08:30:43;99661.08;;;23.10;54.11
74181;BME280;62544;50.826;14.354;2022-08-30T08:34:45;99660.30;;;23.36;51.48
74181;BME280;62544;50.826;14.354;2022-08-30T08:38:47;99658.92;;;23.66;53.91
74181;BME280;62544;50.826;14.354;2022-08-30T08:46:54;99656.62;;;24.24;48.13
74181;BME280;62544;50.826;14.354;2022-08-30T08:50:53;99655.38;;;24.45;49.37
74181;BME280;62544;50.826;14.354;2022-08-30T08:54:59;99653.49;;;24.62;48.09
74181;BME280;62544;50.826;14.354;2022-08-30T08:58:57;99651.34;;;24.72;47.20
74181;BME280;62544;50.826;14.354;2022-08-30T09:03:00;99649.52;;;24.85;46.47
74181;BME280;62544;50.826;14.354;2022-08-30T09:07:05;99647.89;;;24.93;47.83
74181;BME280;62544;50.826;14.354;2022-08-30T09:11:04;99645.48;;;25.11;48.68
74181;BME280;62544;50.826;14.354;2022-08-30T09:15:19;99643.13;;;25.33;48.52
74181;BME280;62544;50.826;14.354;2022-08-30T09:19:07;99640.71;;;25.55;46.76
74181;BME280;62544;50.826;14.354;2022-08-30T09:27:24;99634.12;;;26.12;41.29
74181;BME280;62544;50.826;14.354;2022-08-30T09:35:19;99632.93;;;25.83;44.13
74181;BME280;62544;50.826;14.354;2022-08-30T09:39:18;99630.35;;;25.42;44.83
74181;BME280;62544;50.826;14.354;2022-08-30T09:43:23;99628.38;;;25.11;44.46
74181;BME280;62544;50.826;14.354;2022-08-30T09:47:22;99626.53;;;24.78;46.90
74181;BME280;62544;50.826;14.354;2022-08-30T09:55:41;99624.03;;;24.43;45.60
74181;BME280;62544;50.826;14.354;2022-08-30T09:59:34;99621.82;;;24.52;42.90
74181;BME280;62544;50.826;14.354;2022-08-30T10:03:35;99621.41;;;24.76;40.49
74181;BME280;62544;50.826;14.354;2022-08-30T10:07:34;99619.33;;;25.18;39.35
74181;BME280;62544;50.826;14.354;2022-08-30T10:11:38;99615.64;;;25.68;36.96
74181;BME280;62544;50.826;14.354;2022-08-30T10:15:54;99611.86;;;26.10;37.48
74181;BME280;62544;50.826;14.354;2022-08-30T10:23:47;99608.22;;;25.98;39.93
74181;BME280;62544;50.826;14.354;2022-08-30T10:27:51;99605.93;;;25.77;41.79
74181;BME280;62544;50.826;14.354;2022-08-30T10:31:46;99605.61;;;25.56;41.42
74181;BME280;62544;50.826;14.354;2022-08-30T10:35:49;99605.13;;;25.38;42.13
74181;BME280;62544;50.826;14.354;2022-08-30T10:39:49;99604.57;;;25.39;42.62
74181;BME280;62544;50.826;14.354;2022-08-30T10:43:59;99603.52;;;25.52;38.82
74181;BME280;62544;50.826;14.354;2022-08-30T10:51:57;99601.67;;;25.88;37.71
74181;BME280;62544;50.826;14.354;2022-08-30T10:55:59;99599.75;;;25.98;39.59
74181;BME280;62544;50.826;14.354;2022-08-30T11:00:03;99598.97;;;26.12;38.52
74181;BME280;62544;50.826;14.354;2022-08-30T11:08:12;99598.64;;;26.04;41.95
74181;BME280;62544;50.826;14.354;2022-08-30T11:16:06;99599.96;;;25.44;44.00
74181;BME280;62544;50.826;14.354;2022-08-30T11:20:20;99599.66;;;25.18;43.61
74181;BME280;62544;50.826;14.354;2022-08-30T11:24:13;99599.58;;;24.86;43.98
74181;BME280;62544;50.826;14.354;2022-08-30T11:28:11;99598.74;;;24.70;44.17
74181;BME280;62544;50.826;14.354;2022-08-30T11:48:43;99587.27;;;26.32;35.79
74181;BME280;62544;50.826;14.354;2022-08-30T11:52:32;99582.17;;;26.56;36.95
74181;BME280;62544;50.826;14.354;2022-08-30T11:56:32;99578.58;;;26.93;35.59
74181;BME280;62544;50.826;14.354;2022-08-30T12:00:37;99575.23;;;27.41;34.04
74181;BME280;62544;50.826;14.354;2022-08-30T12:04:41;99573.47;;;27.97;33.09
74181;BME280;62544;50.826;14.354;2022-08-30T12:16:38;99572.31;;;27.86;38.28
74181;BME280;62544;50.826;14.354;2022-08-30T12:24:44;99573.02;;;26.77;41.65
74181;BME280;62544;50.826;14.354;2022-08-30T12:28:41;99571.57;;;26.25;42.13
74181;BME280;62544;50.826;14.354;2022-08-30T12:32:44;99570.12;;;25.88;41.48
74181;BME280;62544;50.826;14.354;2022-08-30T12:36:53;99568.07;;;25.67;41.17
74181;BME280;62544;50.826;14.354;2022-08-30T12:40:55;99565.80;;;25.67;38.55
74181;BME280;62544;50.826;14.354;2022-08-30T12:44:50;99562.59;;;26.03;36.81
74181;BME280;62544;50.826;14.354;2022-08-30T12:48:51;99558.01;;;26.81;32.20
74181;BME280;62544;50.826;14.354;2022-08-30T12:52:57;99552.76;;;28.07;28.20
74181;BME280;62544;50.826;14.354;2022-08-30T12:57:02;99548.69;;;29.44;25.06
74181;BME280;62544;50.826;14.354;2022-08-30T13:01:10;99544.30;;;30.63;24.77
74181;BME280;62544;50.826;14.354;2022-08-30T13:05:25;99540.37;;;31.19;27.16
74181;BME280;62544;50.826;14.354;2022-08-30T13:09:01;99536.53;;;31.02;30.58
74181;BME280;62544;50.826;14.354;2022-08-30T13:13:04;99532.72;;;31.16;27.76
74181;BME280;62544;50.826;14.354;2022-08-30T13:17:09;99527.48;;;31.42;26.93
74181;BME280;62544;50.826;14.354;2022-08-30T13:25:10;99522.14;;;30.48;33.31
74181;BME280;62544;50.826;14.354;2022-08-30T13:29:15;99519.62;;;29.85;33.56
74181;BME280;62544;50.826;14.354;2022-08-30T13:33:13;99517.05;;;29.34;35.03
74181;BME280;62544;50.826;14.354;2022-08-30T13:37:22;99514.32;;;29.02;36.04
74181;BME280;62544;50.826;14.354;2022-08-30T13:41:17;99512.78;;;28.71;36.38
74181;BME280;62544;50.826;14.354;2022-08-30T13:45:19;99510.44;;;28.87;30.91
74181;BME280;62544;50.826;14.354;2022-08-30T13:49:23;99509.27;;;28.81;33.00
74181;BME280;62544;50.826;14.354;2022-08-30T13:53:23;99507.76;;;28.53;33.42
74181;BME280;62544;50.826;14.354;2022-08-30T13:57:27;99505.25;;;28.34;35.28
74181;BME280;62544;50.826;14.354;2022-08-30T14:01:27;99501.98;;;28.26;33.21
74181;BME280;62544;50.826;14.354;2022-08-30T14:05:33;99499.17;;;28.23;33.06
74181;BME280;62544;50.826;14.354;2022-08-30T14:09:31;99496.70;;;28.01;35.55
74181;BME280;62544;50.826;14.354;2022-08-30T14:13:33;99495.04;;;27.83;35.44
74181;BME280;62544;50.826;14.354;2022-08-30T14:17:35;99494.50;;;28.07;31.72
74181;BME280;62544;50.826;14.354;2022-08-30T14:21:37;99492.80;;;28.07;35.15
74181;BME280;62544;50.826;14.354;2022-08-30T14:25:39;99491.50;;;27.87;37.41
74181;BME280;62544;50.826;14.354;2022-08-30T14:29:41;99489.71;;;27.99;33.65
74181;BME280;62544;50.826;14.354;2022-08-30T14:33:43;99488.73;;;28.25;32.63
74181;BME280;62544;50.826;14.354;2022-08-30T14:37:45;99488.02;;;28.55;32.13
74181;BME280;62544;50.826;14.354;2022-08-30T14:41:49;99488.23;;;28.50;34.31
74181;BME280;62544;50.826;14.354;2022-08-30T14:45:49;99488.94;;;28.18;36.17
74181;BME280;62544;50.826;14.354;2022-08-30T14:49:51;99488.30;;;28.04;34.89
74181;BME280;62544;50.826;14.354;2022-08-30T14:53:53;99486.83;;;28.05;34.04
74181;BME280;62544;50.826;14.354;2022-08-30T14:57:55;99485.88;;;28.03;34.91
74181;BME280;62544;50.826;14.354;2022-08-30T15:01:57;99487.60;;;27.74;37.15
74181;BME280;62544;50.826;14.354;2022-08-30T15:05:59;99487.44;;;27.38;37.88
74181;BME280;62544;50.826;14.354;2022-08-30T15:10:01;99487.89;;;27.03;38.61
74181;BME280;62544;50.826;14.354;2022-08-30T15:14:03;99488.36;;;26.62;40.37
74181;BME280;62544;50.826;14.354;2022-08-30T15:18:05;99487.67;;;26.38;39.58
74181;BME280;62544;50.826;14.354;2022-08-30T15:22:07;99487.40;;;25.97;43.50
74181;BME280;62544;50.826;14.354;2022-08-30T15:26:09;99486.13;;;25.47;44.54
74181;BME280;62544;50.826;14.354;2022-08-30T15:30:11;99485.39;;;24.91;47.40
74181;BME280;62544;50.826;14.354;2022-08-30T15:34:14;99484.00;;;24.60;45.29
74181;BME280;62544;50.826;14.354;2022-08-30T15:38:15;99482.81;;;24.56;42.08
74181;BME280;62544;50.826;14.354;2022-08-30T15:42:17;99482.15;;;24.41;43.98
74181;BME280;62544;50.826;14.354;2022-08-30T15:46:20;99480.62;;;24.28;45.37
74181;BME280;62544;50.826;14.354;2022-08-30T15:50:21;99479.75;;;24.12;46.46
74181;BME280;62544;50.826;14.354;2022-08-30T15:54:23;99479.40;;;23.85;48.01
74181;BME280;62544;50.826;14.354;2022-08-30T15:58:25;99479.71;;;23.63;48.12
74181;BME280;62544;50.826;14.354;2022-08-30T16:02:27;99479.60;;;23.43;48.35
74181;BME280;62544;50.826;14.354;2022-08-30T16:06:32;99479.13;;;23.26;48.70
74181;BME280;62544;50.826;14.354;2022-08-30T16:10:31;99477.01;;;23.15;48.92
74181;BME280;62544;50.826;14.354;2022-08-30T16:14:33;99475.87;;;23.03;48.59
74181;BME280;62544;50.826;14.354;2022-08-30T16:18:35;99474.61;;;23.02;47.23
74181;BME280;62544;50.826;14.354;2022-08-30T16:22:37;99472.44;;;23.08;47.07
74181;BME280;62544;50.826;14.354;2022-08-30T16:26:39;99471.14;;;23.05;47.84
74181;BME280;62544;50.826;14.354;2022-08-30T16:30:41;99471.72;;;22.92;48.50
74181;BME280;62544;50.826;14.354;2022-08-30T16:34:43;99470.90;;;22.73;49.77
74181;BME280;62544;50.826;14.354;2022-08-30T16:38:45;99470.58;;;22.51;50.57
74181;BME280;62544;50.826;14.354;2022-08-30T16:42:47;99468.89;;;22.29;50.75
74181;BME280;62544;50.826;14.354;2022-08-30T16:46:49;99467.77;;;22.10;51.38
74181;BME280;62544;50.826;14.354;2022-08-30T16:50:51;99466.10;;;21.93;52.25
74181;BME280;62544;50.826;14.354;2022-08-30T16:54:53;99464.09;;;21.75;53.94
74181;BME280;62544;50.826;14.354;2022-08-30T16:58:55;99462.55;;;21.58;54.95
74181;BME280;62544;50.826;14.354;2022-08-30T17:02:57;99463.26;;;21.42;55.20
74181;BME280;62544;50.826;14.354;2022-08-30T17:06:59;99464.35;;;21.27;56.82
74181;BME280;62544;50.826;14.354;2022-08-30T17:11:01;99465.47;;;21.12;58.30
74181;BME280;62544;50.826;14.354;2022-08-30T17:15:04;99466.91;;;20.99;59.68
74181;BME280;62544;50.826;14.354;2022-08-30T17:19:05;99469.80;;;20.86;60.50
74181;BME280;62544;50.826;14.354;2022-08-30T17:23:07;99473.27;;;20.74;61.50
74181;BME280;62544;50.826;14.354;2022-08-30T17:27:09;99476.73;;;20.60;63.48
74181;BME280;62544;50.826;14.354;2022-08-30T17:31:11;99478.99;;;20.45;63.49
74181;BME280;62544;50.826;14.354;2022-08-30T17:35:13;99481.66;;;20.27;64.98
74181;BME280;62544;50.826;14.354;2022-08-30T17:39:15;99484.90;;;20.08;65.94
74181;BME280;62544;50.826;14.354;2022-08-30T17:43:17;99489.58;;;19.87;66.35
74181;BME280;62544;50.826;14.354;2022-08-30T17:47:19;99493.16;;;19.67;66.25
74181;BME280;62544;50.826;14.354;2022-08-30T17:51:21;99496.00;;;19.48;67.11
74181;BME280;62544;50.826;14.354;2022-08-30T17:55:23;99500.12;;;19.28;67.83
74181;BME280;62544;50.826;14.354;2022-08-30T17:59:25;99503.70;;;19.09;68.44
74181;BME280;62544;50.826;14.354;2022-08-30T18:03:27;99506.60;;;18.88;68.57
74181;BME280;62544;50.826;14.354;2022-08-30T18:07:29;99508.75;;;18.66;69.44
74181;BME280;62544;50.826;14.354;2022-08-30T18:11:31;99511.70;;;18.43;69.91
74181;BME280;62544;50.826;14.354;2022-08-30T18:15:33;99514.64;;;18.20;70.89
74181;BME280;62544;50.826;14.354;2022-08-30T18:19:35;99518.35;;;17.96;70.95
74181;BME280;62544;50.826;14.354;2022-08-30T18:23:37;99522.04;;;17.70;71.59
74181;BME280;62544;50.826;14.354;2022-08-30T18:27:39;99525.83;;;17.45;72.11
74181;BME280;62544;50.826;14.354;2022-08-30T18:31:41;99530.24;;;17.21;72.41
74181;BME280;62544;50.826;14.354;2022-08-30T18:35:43;99535.52;;;16.97;73.01
74181;BME280;62544;50.826;14.354;2022-08-30T18:39:45;99541.13;;;16.74;73.38
74181;BME280;62544;50.826;14.354;2022-08-30T18:43:47;99545.12;;;16.52;74.32
74181;BME280;62544;50.826;14.354;2022-08-30T18:47:49;99547.91;;;16.30;75.21
74181;BME280;62544;50.826;14.354;2022-08-30T18:51:51;99550.90;;;16.08;75.96
74181;BME280;62544;50.826;14.354;2022-08-30T18:55:53;99552.90;;;15.86;75.81
74181;BME280;62544;50.826;14.354;2022-08-30T18:59:55;99553.67;;;15.64;77.30
74181;BME280;62544;50.826;14.354;2022-08-30T19:03:57;99553.97;;;15.43;77.78
74181;BME280;62544;50.826;14.354;2022-08-30T19:07:59;99555.13;;;15.23;78.06
74181;BME280;62544;50.826;14.354;2022-08-30T19:12:01;99557.48;;;15.03;78.38
74181;BME280;62544;50.826;14.354;2022-08-30T19:16:04;99558.42;;;14.84;79.38
74181;BME280;62544;50.826;14.354;2022-08-30T19:20:05;99559.37;;;14.67;79.86
74181;BME280;62544;50.826;14.354;2022-08-30T19:24:07;99559.93;;;14.50;80.99
74181;BME280;62544;50.826;14.354;2022-08-30T19:28:09;99561.55;;;14.34;81.09
74181;BME280;62544;50.826;14.354;2022-08-30T19:32:14;99564.72;;;14.19;81.52
74181;BME280;62544;50.826;14.354;2022-08-30T19:36:13;99566.60;;;14.05;81.93
74181;BME280;62544;50.826;14.354;2022-08-30T19:40:16;99569.11;;;13.92;81.59
74181;BME280;62544;50.826;14.354;2022-08-30T19:44:17;99572.14;;;13.78;82.26
74181;BME280;62544;50.826;14.354;2022-08-30T19:48:19;99575.53;;;13.66;82.55
74181;BME280;62544;50.826;14.354;2022-08-30T19:52:21;99578.53;;;13.53;82.38
74181;BME280;62544;50.826;14.354;2022-08-30T19:56:23;99580.31;;;13.40;83.18
74181;BME280;62544;50.826;14.354;2022-08-30T20:00:25;99579.60;;;13.27;82.98
74181;BME280;62544;50.826;14.354;2022-08-30T20:04:27;99579.22;;;13.13;85.52
74181;BME280;62544;50.826;14.354;2022-08-30T20:08:29;99578.83;;;13.01;84.89
74181;BME280;62544;50.826;14.354;2022-08-30T20:12:32;99580.22;;;12.89;86.90
74181;BME280;62544;50.826;14.354;2022-08-30T20:16:33;99581.22;;;12.81;87.48
74181;BME280;62544;50.826;14.354;2022-08-30T20:20:35;99583.15;;;12.74;87.71
74181;BME280;62544;50.826;14.354;2022-08-30T20:24:37;99584.38;;;12.68;87.95
74181;BME280;62544;50.826;14.354;2022-08-30T20:28:39;99585.18;;;12.63;88.18
74181;BME280;62544;50.826;14.354;2022-08-30T20:32:41;99586.96;;;12.58;88.28
74181;BME280;62544;50.826;14.354;2022-08-30T20:36:43;99588.50;;;12.55;88.72
74181;BME280;62544;50.826;14.354;2022-08-30T20:40:46;99589.01;;;12.51;88.49
74181;BME280;62544;50.826;14.354;2022-08-30T20:44:47;99588.61;;;12.47;88.49
74181;BME280;62544;50.826;14.354;2022-08-30T20:48:49;99588.12;;;12.43;88.07
74181;BME280;62544;50.826;14.354;2022-08-30T20:52:51;99586.35;;;12.37;87.96
74181;BME280;62544;50.826;14.354;2022-08-30T20:56:53;99586.08;;;12.32;88.41
74181;BME280;62544;50.826;14.354;2022-08-30T21:00:55;99586.72;;;12.26;88.46
74181;BME280;62544;50.826;14.354;2022-08-30T21:04:57;99587.72;;;12.20;88.03
74181;BME280;62544;50.826;14.354;2022-08-30T21:08:59;99588.72;;;12.13;88.33
74181;BME280;62544;50.826;14.354;2022-08-30T21:13:01;99590.28;;;12.06;88.48
74181;BME280;62544;50.826;14.354;2022-08-30T21:17:03;99591.61;;;12.00;88.58
74181;BME280;62544;50.826;14.354;2022-08-30T21:21:08;99592.89;;;11.95;88.96
74181;BME280;62544;50.826;14.354;2022-08-30T21:25:07;99593.59;;;11.90;89.26
74181;BME280;62544;50.826;14.354;2022-08-30T21:29:09;99593.77;;;11.87;89.44
74181;BME280;62544;50.826;14.354;2022-08-30T21:33:11;99593.42;;;11.84;89.19
74181;BME280;62544;50.826;14.354;2022-08-30T21:37:13;99594.26;;;11.82;89.77
74181;BME280;62544;50.826;14.354;2022-08-30T21:41:15;99594.28;;;11.80;90.04
74181;BME280;62544;50.826;14.354;2022-08-30T21:45:17;99594.81;;;11.79;89.78
74181;BME280;62544;50.826;14.354;2022-08-30T21:49:20;99595.09;;;11.78;90.32
74181;BME280;62544;50.826;14.354;2022-08-30T21:53:21;99595.28;;;11.77;90.17
74181;BME280;62544;50.826;14.354;2022-08-30T21:57:23;99595.95;;;11.76;90.34
74181;BME280;62544;50.826;14.354;2022-08-30T22:01:26;99595.98;;;11.75;90.52
74181;BME280;62544;50.826;14.354;2022-08-30T22:05:27;99596.72;;;11.72;90.23
74181;BME280;62544;50.826;14.354;2022-08-30T22:09:29;99599.27;;;11.69;90.33
74181;BME280;62544;50.826;14.354;2022-08-30T22:13:31;99601.62;;;11.65;90.41